Time;durP1;ratioP1;P1;durP2;ratioP2;P2;SDS_P1;SDS_P2;PMS_P1;PMS_P2;Temp;Humidity;BMP_temperature;BMP_pressure;BME280_temperature;BME280_humidity;BME280_pressure;Samples;Min_cycle;Max_cycle;Signal;HPM_P1;HPM_P2
2023/10/11 00:00:59;;;;;;;6.78;2.35;;;36.40;31.20;;;;;;5066044;28;21398;-62
2023/10/11 00:05:55;;;;;;;5.32;2.25;;;36.20;31.30;;;;;;5060117;28;20389;-61
2023/10/11 00:08:38;;;;;;;11.35;2.30;;;36.10;32.10;;;;;;5062211;28;20396;-61
2023/10/11 00:11:07;;;;;;;4.40;2.30;;;36.00;32.00;;;;;;5056997;28;20062;-59
2023/10/11 00:13:35;;;;;;;12.43;2.63;;;35.80;32.20;;;;;;5055502;28;20009;-64
2023/10/11 00:16:07;;;;;;;14.45;2.17;;;35.70;32.40;;;;;;5065634;28;20017;-60
2023/10/11 00:18:38;;;;;;;13.65;3.50;;;35.70;33.00;;;;;;5054672;28;20013;-63
2023/10/11 00:23:57;;;;;;;12.15;2.22;;;35.70;33.70;;;;;;5007675;28;20018;-61
2023/10/11 00:26:24;;;;;;;12.07;2.03;;;35.50;33.90;;;;;;5021406;28;20038;-57
2023/10/11 00:28:50;;;;;;;15.60;2.88;;;35.50;34.00;;;;;;5026059;28;20550;-60
2023/10/11 00:31:19;;;;;;;9.98;2.25;;;35.40;34.90;;;;;;5008170;28;20410;-59
2023/10/11 00:33:46;;;;;;;10.48;2.28;;;35.30;34.80;;;;;;5020604;28;20009;-60
2023/10/11 00:36:15;;;;;;;11.77;2.15;;;35.20;35.00;;;;;;5018356;28;20025;-61
2023/10/11 00:38:50;;;;;;;17.48;2.28;;;35.10;35.60;;;;;;5021370;28;20079;-59
2023/10/11 00:41:19;;;;;;;12.30;2.35;;;35.00;35.70;;;;;;5008228;28;20025;-60
2023/10/11 00:43:51;;;;;;;15.73;2.20;;;34.90;36.10;;;;;;5008599;28;20018;-61
2023/10/11 00:46:22;;;;;;;22.60;2.50;;;34.80;36.10;;;;;;5007836;28;20068;-63
2023/10/11 00:49:00;;;;;;;17.70;1.90;;;34.70;37.00;;;;;;5007774;28;20112;-61
2023/10/11 00:51:30;;;;;;;9.05;2.60;;;34.50;37.10;;;;;;5026956;28;20017;-62
2023/10/11 00:53:59;;;;;;;21.88;2.83;;;34.40;37.70;;;;;;5010510;28;20058;-61
2023/10/11 00:56:34;;;;;;;22.85;2.95;;;34.20;38.30;;;;;;5010290;28;20112;-61
2023/10/11 00:59:14;;;;;;;37.25;3.55;;;34.10;38.80;;;;;;5011293;28;20049;-63
2023/10/11 01:01:45;;;;;;;27.08;3.58;;;34.00;39.20;;;;;;5055618;28;20078;-62
2023/10/11 01:04:13;;;;;;;31.75;3.58;;;33.90;39.40;;;;;;5060551;28;20017;-59
2023/10/11 01:06:40;;;;;;;29.42;3.10;;;33.80;39.40;;;;;;5056075;28;20072;-61
2023/10/11 01:09:16;;;;;;;22.05;3.22;;;33.70;39.90;;;;;;5065366;28;20376;-60
2023/10/11 01:11:45;;;;;;;26.48;2.97;;;33.50;40.10;;;;;;5058066;28;20013;-61
2023/10/11 01:14:12;;;;;;;28.52;3.55;;;33.50;40.20;;;;;;5069838;28;20030;-62
2023/10/11 01:16:38;;;;;;;22.15;3.20;;;33.40;40.50;;;;;;5049566;28;20063;-59
2023/10/11 01:19:11;;;;;;;22.48;3.35;;;33.30;40.80;;;;;;5057071;28;20433;-60
2023/10/11 01:21:38;;;;;;;29.00;3.80;;;33.10;41.00;;;;;;5063932;28;20380;-60
2023/10/11 01:24:11;;;;;;;31.13;3.38;;;33.10;41.30;;;;;;5056515;28;20508;-61
2023/10/11 01:26:38;;;;;;;25.33;2.95;;;32.90;41.40;;;;;;5057837;28;20029;-59
2023/10/11 01:29:05;;;;;;;16.67;2.55;;;32.90;41.90;;;;;;5051908;28;20021;-60
2023/10/11 01:31:35;;;;;;;25.25;3.97;;;32.80;42.10;;;;;;5052225;28;20024;-59
2023/10/11 01:34:02;;;;;;;24.52;3.10;;;32.70;42.30;;;;;;5068007;28;20076;-63
2023/10/11 01:36:28;;;;;;;29.05;3.60;;;32.70;42.70;;;;;;5048307;28;20053;-56
2023/10/11 01:39:00;;;;;;;30.50;2.95;;;32.60;43.10;;;;;;5059167;28;20013;-59
2023/10/11 01:41:27;;;;;;;40.40;3.30;;;32.50;43.00;;;;;;5065015;28;20028;-59
2023/10/11 01:43:55;;;;;;;28.67;3.35;;;32.50;43.40;;;;;;5067157;28;20123;-58
2023/10/11 01:46:35;;;;;;;29.15;3.28;;;32.40;43.40;;;;;;5067901;28;20036;-59
2023/10/11 01:49:05;;;;;;;35.65;3.33;;;32.40;43.80;;;;;;5059326;28;20092;-59
2023/10/11 01:51:39;;;;;;;26.42;3.55;;;32.40;43.80;;;;;;5055168;28;20051;-60
2023/10/11 01:54:07;;;;;;;23.67;3.00;;;32.30;43.90;;;;;;5064329;28;20048;-61
2023/10/11 01:56:34;;;;;;;21.10;2.45;;;32.20;44.40;;;;;;5048254;28;20025;-56
2023/10/11 01:59:01;;;;;;;20.17;3.00;;;32.20;44.70;;;;;;5049563;28;20485;-58
2023/10/11 02:01:59;;;;;;;20.40;2.60;;;32.10;44.90;;;;;;5052455;28;20775;-62
2023/10/11 02:04:20;;;;;;;12.57;2.25;;;32.10;44.90;;;;;;5049888;28;20033;-60
2023/10/11 02:06:50;;;;;;;19.55;2.80;;;32.00;45.30;;;;;;5049888;28;20036;-56
2023/10/11 02:09:20;;;;;;;22.42;2.80;;;31.90;45.60;;;;;;5063703;28;20016;-60
2023/10/11 02:11:52;;;;;;;14.90;2.00;;;31.80;45.70;;;;;;5066551;28;20025;-59
2023/10/11 02:14:22;;;;;;;14.13;2.17;;;31.70;46.10;;;;;;5058460;28;20487;-60
2023/10/11 02:16:49;;;;;;;14.05;2.55;;;31.70;46.40;;;;;;5051478;28;21545;-58
2023/10/11 02:19:16;;;;;;;18.27;2.10;;;31.60;46.80;;;;;;5062691;28;20017;-56
2023/10/11 02:21:45;;;;;;;15.32;2.05;;;31.60;46.80;;;;;;5052479;28;20017;-60
2023/10/11 02:24:15;;;;;;;13.93;2.00;;;31.50;46.90;;;;;;5067964;28;20085;-64
2023/10/11 02:26:49;;;;;;;21.25;2.50;;;31.50;47.30;;;;;;5048119;28;20120;-57
2023/10/11 02:29:20;;;;;;;19.90;2.40;;;31.30;47.30;;;;;;5055598;28;20025;-60
2023/10/11 02:31:52;;;;;;;18.67;2.42;;;31.30;47.70;;;;;;5058270;28;20021;-57
2023/10/11 02:34:19;;;;;;;11.85;1.80;;;31.20;47.70;;;;;;5054043;28;20024;-58
2023/10/11 02:39:43;;;;;;;;;;;31.10;48.00;;;;;;5005884;28;20053;-60
2023/10/11 02:42:10;;;;;;;21.02;2.25;;;31.10;48.10;;;;;;5006132;28;20380;-57
2023/10/11 02:44:39;;;;;;;22.75;2.90;;;31.00;48.10;;;;;;5005876;28;20505;-58
2023/10/11 02:47:09;;;;;;;16.48;2.00;;;30.90;48.30;;;;;;5005449;28;20137;-60
2023/10/11 02:49:35;;;;;;;21.98;2.65;;;30.90;48.50;;;;;;5005071;28;20482;-59
2023/10/11 02:52:07;;;;;;;11.35;2.72;;;30.90;48.50;;;;;;5005777;28;20193;-59
2023/10/11 02:54:39;;;;;;;32.00;2.70;;;30.80;48.40;;;;;;5005925;28;20421;-59
2023/10/11 02:57:27;;;;;;;18.33;2.15;;;30.80;48.70;;;;;;5004323;28;20029;-59
2023/10/11 02:59:53;;;;;;;19.95;2.20;;;30.80;48.80;;;;;;5005420;28;20474;-64
2023/10/11 03:02:21;;;;;;;16.83;2.30;;;30.80;49.30;;;;;;5005564;28;20038;-58
2023/10/11 03:04:47;;;;;;;19.65;2.30;;;30.70;49.30;;;;;;5006163;28;20091;-62
2023/10/11 03:07:23;;;;;;;17.73;2.53;;;30.60;49.50;;;;;;5004644;28;20065;-60
2023/10/11 03:09:51;;;;;;;22.95;2.63;;;30.50;49.70;;;;;;5005496;28;20026;-61
2023/10/11 03:12:30;;;;;;;10.73;1.83;;;30.50;50.10;;;;;;5005578;28;20121;-60
2023/10/11 03:14:56;;;;;;;14.73;3.00;;;30.50;50.10;;;;;;5005981;28;20097;-63
2023/10/11 03:17:23;;;;;;;14.82;3.08;;;30.40;50.20;;;;;;5028226;28;20036;-61
2023/10/11 03:19:52;;;;;;;17.45;3.67;;;30.40;50.40;;;;;;5046163;28;20013;-60
2023/10/11 03:22:21;;;;;;;22.77;4.43;;;30.30;50.60;;;;;;5031524;28;20043;-63
2023/10/11 03:24:59;;;;;;;16.77;3.80;;;30.20;50.90;;;;;;5033113;28;20013;-62
2023/10/11 03:27:27;;;;;;;14.40;3.45;;;30.20;51.20;;;;;;5028150;28;20040;-62
2023/10/11 03:29:55;;;;;;;17.33;2.90;;;30.20;51.30;;;;;;5045191;28;20532;-61
2023/10/11 03:32:25;;;;;;;10.50;2.70;;;30.20;51.30;;;;;;5040656;28;20421;-61
2023/10/11 03:34:51;;;;;;;14.50;2.85;;;30.10;51.40;;;;;;5032138;28;20082;-61
2023/10/11 03:37:18;;;;;;;14.13;2.22;;;30.00;51.40;;;;;;5039353;28;20075;-60
2023/10/11 03:39:55;;;;;;;13.90;2.05;;;30.00;51.70;;;;;;5046684;28;20097;-59
2023/10/11 03:42:53;;;;;;;11.05;2.60;;;30.00;51.80;;;;;;5026801;28;20024;-59
2023/10/11 03:45:10;;;;;;;5.63;2.30;;;30.00;51.40;;;;;;5027433;28;20090;-65
2023/10/11 03:47:38;;;;;;;20.23;2.33;;;29.90;51.40;;;;;;5030553;28;20021;-62
2023/10/11 03:50:06;;;;;;;9.57;2.30;;;29.90;51.40;;;;;;5039609;28;20020;-60
2023/10/11 03:52:33;;;;;;;10.63;2.10;;;29.90;51.30;;;;;;5038899;28;20385;-60
2023/10/11 03:55:09;;;;;;;10.90;2.38;;;29.90;51.20;;;;;;5039723;28;20434;-62
2023/10/11 03:57:43;;;;;;;18.80;2.33;;;29.90;51.10;;;;;;5050240;28;20024;-59
2023/10/11 04:00:25;;;;;;;10.43;2.30;;;29.80;51.30;;;;;;5059192;28;20040;-61
2023/10/11 04:03:16;;;;;;;13.07;2.53;;;29.80;51.30;;;;;;5057545;28;20025;-59
2023/10/11 04:05:40;;;;;;;7.93;2.22;;;29.80;51.40;;;;;;5066057;28;20436;-61
2023/10/11 04:08:11;;;;;;;7.68;2.10;;;29.70;51.40;;;;;;5060892;28;20029;-60
2023/10/11 04:10:43;;;;;;;5.47;2.00;;;29.60;51.40;;;;;;5063390;28;20016;-58
2023/10/11 04:13:14;;;;;;;4.88;1.65;;;29.60;51.60;;;;;;5057671;28;20107;-60
2023/10/11 04:15:51;;;;;;;9.85;1.90;;;29.60;51.80;;;;;;5053662;28;20550;-57
2023/10/11 04:19:02;;;;;;;23.58;1.70;;;29.60;52.00;;;;;;5070113;28;20020;-60
2023/10/11 04:23:39;;;;;;;8.10;1.60;;;29.40;51.90;;;;;;5052243;28;20377;-61
2023/10/11 04:26:22;;;;;;;9.95;2.40;;;29.40;52.10;;;;;;5060510;28;20074;-60
2023/10/11 04:28:52;;;;;;;13.55;4.32;;;29.40;52.00;;;;;;5065370;28;20025;-61
2023/10/11 04:31:36;;;;;;;15.32;2.38;;;29.30;52.50;;;;;;5057342;28;20017;-66
2023/10/11 04:34:11;;;;;;;12.63;1.85;;;29.30;52.80;;;;;;5061090;28;20037;-61
2023/10/11 04:36:42;;;;;;;9.80;1.67;;;29.30;53.00;;;;;;5056271;28;20095;-61
2023/10/11 04:39:16;;;;;;;11.07;1.50;;;29.30;52.70;;;;;;5066213;28;20029;-63
2023/10/11 04:41:52;;;;;;;8.50;1.42;;;29.20;53.00;;;;;;5068585;28;20476;-57
2023/10/11 04:44:18;;;;;;;5.28;1.10;;;29.30;52.90;;;;;;5061205;28;20059;-62
2023/10/11 04:46:57;;;;;;;10.98;1.52;;;29.30;53.10;;;;;;5049791;28;20047;-62
2023/10/11 04:49:25;;;;;;;11.13;1.67;;;29.20;53.00;;;;;;5054331;28;20023;-61
2023/10/11 04:51:56;;;;;;;6.75;1.45;;;29.20;52.90;;;;;;5054438;28;20017;-62
2023/10/11 04:54:35;;;;;;;6.40;1.23;;;29.10;52.70;;;;;;5060113;28;20017;-60
2023/10/11 04:57:49;;;;;;;6.80;1.55;;;29.10;52.80;;;;;;5060769;28;20400;-63
2023/10/11 04:59:59;;;;;;;6.25;1.65;;;29.10;52.90;;;;;;5051804;28;20489;-62
2023/10/11 05:02:32;;;;;;;8.35;1.50;;;29.00;52.70;;;;;;5060604;28;20110;-64
2023/10/11 05:05:10;;;;;;;7.63;1.63;;;29.00;52.50;;;;;;5059473;28;20024;-61
2023/10/11 05:07:42;;;;;;;6.57;1.80;;;29.00;52.20;;;;;;5056478;28;20137;-62
2023/10/11 05:10:43;;;;;;;11.27;1.23;;;29.00;52.10;;;;;;5061525;28;20025;-63
2023/10/11 05:13:05;;;;;;;6.63;1.33;;;29.00;52.40;;;;;;5051638;28;20033;-63
2023/10/11 05:15:42;;;;;;;9.27;1.67;;;28.90;52.10;;;;;;5061773;28;20515;-62
2023/10/11 05:18:09;;;;;;;6.32;1.23;;;28.90;52.00;;;;;;5058955;28;20079;-60
2023/10/11 05:23:13;;;;;;;8.13;2.25;;;28.90;51.90;;;;;;5055758;28;20096;-62
2023/10/11 05:25:59;;;;;;;8.57;1.75;;;28.90;51.80;;;;;;5062225;28;20025;-61
2023/10/11 05:28:27;;;;;;;8.80;1.65;;;28.90;51.40;;;;;;5057449;28;20033;-63
2023/10/11 05:51:03;;;;;;;17.85;11.15;;;28.60;51.70;;;;;;4998448;28;20556;-61
2023/10/11 05:53:30;;;;;;;6.20;1.50;;;28.50;52.20;;;;;;4998457;28;20494;-61
2023/10/11 05:55:57;;;;;;;8.38;1.45;;;28.50;52.30;;;;;;4996645;28;20561;-62
2023/10/11 05:58:24;;;;;;;3.28;0.88;;;28.40;52.30;;;;;;4998668;28;20249;-62
2023/10/11 06:00:53;;;;;;;7.90;1.33;;;28.30;52.90;;;;;;4993498;28;20026;-62
2023/10/11 06:03:20;;;;;;;5.28;1.08;;;28.20;52.90;;;;;;4994721;28;20042;-60
2023/10/11 06:05:51;;;;;;;8.98;1.40;;;28.10;52.80;;;;;;4994423;28;20018;-60
2023/10/11 06:08:17;;;;;;;17.38;1.83;;;28.10;53.10;;;;;;4994067;28;20085;-62
2023/10/11 06:10:44;;;;;;;11.50;1.65;;;28.00;53.30;;;;;;5036185;28;20532;-62
2023/10/11 06:13:14;;;;;;;8.52;1.20;;;27.90;53.40;;;;;;5055531;28;20086;-63
2023/10/11 06:16:07;;;;;;;10.77;1.50;;;27.90;53.90;;;;;;5059103;28;20016;-62
2023/10/11 06:18:39;;;;;;;11.30;1.40;;;27.90;54.20;;;;;;5064261;28;20015;-62
2023/10/11 06:21:24;;;;;;;6.00;1.40;;;27.80;54.50;;;;;;5056504;28;20437;-62
2023/10/11 06:23:53;;;;;;;4.68;1.10;;;27.70;54.50;;;;;;5052894;28;20013;-62
2023/10/11 06:26:52;;;;;;;7.15;1.70;;;27.70;55.00;;;;;;5050980;28;20048;-61
2023/10/11 06:29:23;;;;;;;5.72;1.85;;;27.70;55.20;;;;;;5054832;28;20020;-62
2023/10/11 06:31:55;;;;;;;12.00;1.50;;;27.60;55.10;;;;;;5055399;28;20012;-62
2023/10/11 06:34:32;;;;;;;7.75;1.40;;;27.60;55.10;;;;;;5054502;28;20028;-62
2023/10/11 06:37:00;;;;;;;12.07;1.30;;;27.60;55.70;;;;;;5055056;28;21786;-62
2023/10/11 06:42:18;;;;;;;39.50;23.58;;;27.60;55.80;;;;;;5053943;28;20021;-62
2023/10/11 06:44:48;;;;;;;54.58;42.33;;;27.40;56.40;;;;;;5051988;28;20028;-61
2023/10/11 06:47:16;;;;;;;62.67;42.25;;;27.30;56.60;;;;;;5054833;28;20052;-63
2023/10/11 06:49:47;;;;;;;53.65;40.38;;;27.30;57.00;;;;;;5053995;28;20024;-61
2023/10/11 06:52:17;;;;;;;47.65;34.22;;;27.20;57.70;;;;;;5052079;28;20502;-61
2023/10/11 06:54:49;;;;;;;20.13;12.82;;;27.20;57.20;;;;;;5053652;28;20492;-60
2023/10/11 06:57:19;;;;;;;12.20;4.82;;;27.10;56.90;;;;;;5057126;28;20373;-61
2023/10/11 06:59:49;;;;;;;8.98;2.38;;;27.00;57.30;;;;;;5054247;28;20021;-62
2023/10/11 07:02:31;;;;;;;8.70;1.83;;;26.90;57.50;;;;;;5052368;28;20075;-60
2023/10/11 07:05:14;;;;;;;13.45;2.00;;;26.80;57.90;;;;;;5052934;28;20044;-62
2023/10/11 07:07:45;;;;;;;15.88;1.75;;;26.70;58.00;;;;;;5054668;28;20056;-61
2023/10/11 07:10:32;;;;;;;8.05;1.60;;;26.60;58.00;;;;;;5053779;28;20017;-61
2023/10/11 07:13:06;;;;;;;12.93;1.70;;;26.60;58.30;;;;;;5055325;28;20023;-62
2023/10/11 07:15:50;;;;;;;7.63;1.60;;;26.60;58.50;;;;;;5058421;28;20009;-62
2023/10/11 07:18:25;;;;;;;8.70;1.65;;;26.50;57.90;;;;;;5054521;28;20042;-61
2023/10/11 07:21:05;;;;;;;8.57;1.38;;;26.50;58.10;;;;;;5052079;28;20021;-62
2023/10/11 07:23:35;;;;;;;4.72;1.20;;;26.50;56.60;;;;;;5052514;28;20033;-61
2023/10/11 07:28:52;;;;;;;6.18;0.90;;;26.60;55.40;;;;;;5052084;28;20039;-62
2023/10/11 07:31:31;;;;;;;8.35;1.10;;;26.60;55.20;;;;;;5053660;28;20032;-62
2023/10/11 07:34:16;;;;;;;11.55;1.35;;;26.70;55.10;;;;;;5051599;28;20027;-61
2023/10/11 07:36:43;;;;;;;12.30;1.67;;;26.70;55.00;;;;;;5052715;28;20485;-61
2023/10/11 07:39:15;;;;;;;10.50;1.80;;;26.70;54.90;;;;;;5056268;28;20021;-60
2023/10/11 07:41:42;;;;;;;11.80;1.35;;;26.70;55.00;;;;;;5051343;28;20099;-61
2023/10/11 07:44:11;;;;;;;16.67;1.70;;;26.70;55.10;;;;;;5051382;28;20024;-61
2023/10/11 07:46:38;;;;;;;10.80;1.35;;;26.70;55.10;;;;;;5051470;28;20150;-62
2023/10/11 07:49:06;;;;;;;23.02;17.90;;;26.60;54.90;;;;;;5052100;28;20100;-62
2023/10/11 07:51:36;;;;;;;25.33;18.45;;;26.60;55.10;;;;;;5054993;28;20014;-61
2023/10/11 07:54:19;;;;;;;28.60;17.30;;;26.70;55.00;;;;;;5052910;28;20031;-62
2023/10/11 07:56:57;;;;;;;24.90;18.40;;;26.60;54.80;;;;;;5055310;28;20025;-61
2023/10/11 07:59:28;;;;;;;26.77;18.25;;;26.60;54.70;;;;;;5050575;28;20519;-62
2023/10/11 08:01:59;;;;;;;13.68;1.75;;;26.60;54.70;;;;;;5052400;28;20029;-58
2023/10/11 08:04:29;;;;;;;8.60;1.42;;;26.60;54.90;;;;;;5051055;28;20138;-61
2023/10/11 08:06:59;;;;;;;14.82;1.80;;;26.60;55.00;;;;;;5051645;28;20856;-61
2023/10/11 08:09:28;;;;;;;15.93;1.85;;;26.60;55.30;;;;;;5052561;28;20737;-63
2023/10/11 08:11:59;;;;;;;14.52;2.47;;;26.60;55.20;;;;;;5053927;28;20024;-62
2023/10/11 08:14:32;;;;;;;14.20;2.35;;;26.60;55.30;;;;;;5051466;28;20025;-63
2023/10/11 08:17:10;;;;;;;13.73;2.47;;;26.50;55.00;;;;;;5055875;28;20033;-64
2023/10/11 08:19:37;;;;;;;20.17;2.85;;;26.40;54.80;;;;;;5052450;28;20024;-62
2023/10/11 08:22:09;;;;;;;19.45;2.00;;;26.30;54.70;;;;;;5052824;28;20044;-62
2023/10/11 08:24:56;;;;;;;16.52;2.70;;;26.30;54.70;;;;;;5049793;28;20110;-62
2023/10/11 08:27:27;;;;;;;;;;;26.30;54.70;;;;;;5056494;28;20029;-60
2023/10/11 08:30:31;;;;;;;19.88;2.88;;;26.30;54.40;;;;;;5054263;28;19909;-63
2023/10/11 08:32:51;;;;;;;16.50;2.63;;;26.20;54.30;;;;;;5055478;28;20030;-61
2023/10/11 08:35:26;;;;;;;12.02;2.10;;;26.10;54.30;;;;;;5053769;28;20017;-62
2023/10/11 08:37:53;;;;;;;22.52;3.10;;;25.90;54.10;;;;;;5059047;28;20130;-61
2023/10/11 08:40:22;;;;;;;17.17;2.65;;;25.90;54.20;;;;;;5055683;28;20013;-62
2023/10/11 08:42:50;;;;;;;15.60;2.80;;;25.90;54.00;;;;;;5054770;28;20024;-62
2023/10/11 08:45:33;;;;;;;15.70;2.65;;;25.90;54.10;;;;;;5054226;28;20016;-61
2023/10/11 08:48:06;;;;;;;18.75;2.83;;;25.90;53.40;;;;;;5055045;28;20142;-60
2023/10/11 08:50:37;;;;;;;13.82;2.38;;;25.90;53.30;;;;;;5054951;28;20013;-62
2023/10/11 08:53:08;;;;;;;18.67;2.63;;;25.90;53.00;;;;;;5055636;28;20017;-62
2023/10/11 08:55:41;;;;;;;13.43;2.50;;;25.90;52.60;;;;;;5055157;28;20016;-63
2023/10/11 08:58:23;;;;;;;21.08;2.50;;;25.90;52.10;;;;;;5060026;28;20032;-62
2023/10/11 09:00:55;;;;;;;16.10;2.30;;;25.90;51.80;;;;;;5056651;28;20028;-60
2023/10/11 09:03:26;;;;;;;8.90;2.20;;;25.90;51.50;;;;;;5058244;28;20021;-62
2023/10/11 09:05:59;;;;;;;6.80;1.98;;;26.00;51.90;;;;;;5055129;28;20590;-61
2023/10/11 09:08:31;;;;;;;7.75;2.25;;;25.90;50.80;;;;;;5054164;28;20090;-61
2023/10/11 09:11:13;;;;;;;11.07;2.17;;;25.90;50.80;;;;;;5058070;28;20016;-61
2023/10/11 09:13:41;;;;;;;9.68;2.40;;;25.90;50.70;;;;;;5054347;28;20067;-62
2023/10/11 09:16:13;;;;;;;11.95;2.72;;;25.90;50.50;;;;;;5056253;28;20051;-62
2023/10/11 09:18:46;;;;;;;14.38;2.22;;;25.90;50.80;;;;;;5054710;28;20024;-60
2023/10/11 09:21:15;;;;;;;15.60;2.58;;;25.90;50.90;;;;;;5053055;28;20485;-61
2023/10/11 09:23:51;;;;;;;15.30;2.20;;;25.90;51.00;;;;;;5052762;28;20031;-62
2023/10/11 09:26:34;;;;;;;15.50;2.03;;;25.90;51.00;;;;;;5056457;28;20444;-61
2023/10/11 09:29:03;;;;;;;7.93;1.67;;;25.80;51.40;;;;;;5053960;28;20495;-62
2023/10/11 09:31:31;;;;;;;10.25;2.10;;;25.70;51.50;;;;;;5055177;28;20491;-61
2023/10/11 09:34:07;;;;;;;7.03;2.15;;;25.70;52.50;;;;;;5055918;28;20108;-60
2023/10/11 09:36:34;;;;;;;12.95;2.55;;;25.70;51.90;;;;;;5055405;28;20082;-61
2023/10/11 09:39:15;;;;;;;13.60;2.35;;;25.60;51.90;;;;;;5054792;28;20017;-61
2023/10/11 09:41:45;;;;;;;13.45;2.30;;;25.60;52.50;;;;;;5053800;28;20021;-61
2023/10/11 09:44:14;;;;;;;13.88;2.53;;;25.60;52.70;;;;;;5056321;28;20090;-61
2023/10/11 09:46:43;;;;;;;10.68;2.55;;;25.50;52.70;;;;;;5053001;28;20389;-61
2023/10/11 09:49:13;;;;;;;10.45;2.10;;;25.50;52.30;;;;;;5055479;28;20052;-61
2023/10/11 09:51:43;;;;;;;13.63;2.75;;;25.40;52.20;;;;;;5055384;28;20492;-61
2023/10/11 09:54:12;;;;;;;16.50;3.00;;;25.40;52.20;;;;;;5056747;28;20074;-61
2023/10/11 09:57:04;;;;;;;9.80;2.28;;;25.40;52.30;;;;;;5053993;28;20097;-60
2023/10/11 10:00:09;;;;;;;10.98;2.53;;;25.30;52.30;;;;;;5055043;28;20028;-62
2023/10/11 10:02:37;;;;;;;12.23;2.38;;;25.30;52.70;;;;;;5032414;28;20063;-61
2023/10/11 10:05:06;;;;;;;7.35;2.10;;;25.20;52.30;;;;;;5053952;28;21141;-60
2023/10/11 10:07:44;;;;;;;7.90;2.65;;;25.20;53.00;;;;;;5053892;28;20052;-63
2023/10/11 10:10:27;;;;;;;8.25;2.13;;;25.20;53.10;;;;;;5055160;28;20032;-62
2023/10/11 10:12:57;;;;;;;8.43;2.40;;;25.10;52.70;;;;;;5052606;28;20067;-60
2023/10/11 10:15:32;;;;;;;9.57;2.20;;;25.00;53.00;;;;;;5056265;28;20025;-60
2023/10/11 10:18:03;;;;;;;8.68;2.03;;;25.00;53.10;;;;;;5053636;28;20103;-61
2023/10/11 10:20:41;;;;;;;6.88;1.85;;;25.00;52.20;;;;;;5054687;28;20535;-62
2023/10/11 10:23:17;;;;;;;8.80;2.15;;;24.90;51.90;;;;;;5050741;28;20078;-61
2023/10/11 10:25:50;;;;;;;8.60;2.08;;;24.80;51.60;;;;;;5054958;28;20021;-61
2023/10/11 10:28:32;;;;;;;13.35;2.38;;;24.80;51.60;;;;;;5053559;28;20432;-61
2023/10/11 10:31:19;;;;;;;4.60;2.03;;;24.80;51.10;;;;;;5052692;28;20074;-60
2023/10/11 10:34:04;;;;;;;6.43;2.08;;;24.70;50.30;;;;;;5053883;28;20009;-61
2023/10/11 10:36:31;;;;;;;6.35;2.35;;;24.70;50.90;;;;;;5052558;28;20017;-61
2023/10/11 10:39:01;;;;;;;12.35;2.08;;;24.70;50.90;;;;;;5054055;28;20415;-61
2023/10/11 10:41:36;;;;;;;8.45;1.90;;;24.80;50.60;;;;;;5051292;28;20072;-60
2023/10/11 10:44:21;;;;;;;8.95;2.40;;;24.70;49.10;;;;;;5052414;28;20019;-61
2023/10/11 10:46:59;;;;;;;6.78;2.15;;;24.70;49.00;;;;;;5054901;28;20094;-62
2023/10/11 10:49:47;;;;;;;8.02;2.33;;;24.60;50.00;;;;;;5054373;28;20009;-62
2023/10/11 10:52:29;;;;;;;9.02;2.00;;;24.60;49.00;;;;;;5054975;28;20108;-62
2023/10/11 10:55:01;;;;;;;6.72;2.00;;;24.60;49.50;;;;;;5054121;28;20697;-61
2023/10/11 10:57:31;;;;;;;7.05;2.30;;;24.50;49.90;;;;;;5052977;28;20036;-61
2023/10/11 11:00:00;;;;;;;6.78;2.17;;;24.50;50.00;;;;;;5053933;28;20020;-60
2023/10/11 11:02:26;;;;;;;14.90;2.38;;;24.40;49.70;;;;;;5052173;28;20025;-63
2023/10/11 11:04:53;;;;;;;7.95;2.10;;;24.30;50.10;;;;;;5056218;28;20016;-62
2023/10/11 11:07:26;;;;;;;11.88;2.10;;;24.20;51.20;;;;;;5053836;28;20037;-63
2023/10/11 11:09:57;;;;;;;8.80;2.00;;;24.20;50.80;;;;;;5052812;28;20466;-62
2023/10/11 11:12:31;;;;;;;5.88;2.20;;;24.00;51.00;;;;;;5053146;28;20029;-62
2023/10/11 11:14:58;;;;;;;11.18;2.28;;;24.00;52.20;;;;;;5051132;28;20020;-61
2023/10/11 11:17:47;;;;;;;10.27;1.90;;;23.90;52.40;;;;;;5056560;28;20078;-63
2023/10/11 11:22:47;;;;;;;5.53;2.05;;;23.90;53.00;;;;;;5052945;28;20019;-61
2023/10/11 11:25:27;;;;;;;10.50;2.10;;;23.90;52.40;;;;;;5050608;28;20384;-62
2023/10/11 11:28:16;;;;;;;10.57;2.60;;;23.90;52.20;;;;;;5053323;28;20503;-62
2023/10/11 11:30:44;;;;;;;12.35;2.92;;;23.80;52.40;;;;;;5051659;28;20017;-60
2023/10/11 11:34:05;;;;;;;12.63;3.42;;;23.70;52.80;;;;;;5052894;28;20450;-62
2023/10/11 11:36:34;;;;;;;11.00;3.42;;;23.60;54.40;;;;;;5051531;28;20405;-61
2023/10/11 11:39:25;;;;;;;9.77;3.05;;;23.50;54.10;;;;;;5054500;28;20096;-63
2023/10/11 11:41:57;;;;;;;13.50;3.72;;;23.50;54.80;;;;;;5052805;28;20021;-61
2023/10/11 11:44:31;;;;;;;10.23;3.60;;;23.40;54.70;;;;;;5051885;28;20013;-62
2023/10/11 11:47:04;;;;;;;14.30;4.10;;;23.40;54.60;;;;;;5054810;28;20025;-61
2023/10/11 11:49:33;;;;;;;18.95;5.18;;;23.50;54.60;;;;;;5053513;28;20024;-62
2023/10/11 11:52:00;;;;;;;13.27;4.15;;;23.40;55.70;;;;;;5054923;28;20027;-61
2023/10/11 11:54:28;;;;;;;12.48;3.78;;;23.40;55.10;;;;;;5053038;28;20013;-63
2023/10/11 11:56:55;;;;;;;16.88;3.88;;;23.40;55.20;;;;;;5054308;28;20024;-63
2023/10/11 11:59:24;;;;;;;14.63;3.97;;;23.40;55.20;;;;;;5051126;28;20082;-63
2023/10/11 12:02:01;;;;;;;14.55;4.18;;;23.30;55.00;;;;;;5054786;28;20017;-62
2023/10/11 12:04:29;;;;;;;12.25;3.55;;;23.30;55.50;;;;;;5050488;28;20096;-61
2023/10/11 12:07:09;;;;;;;10.50;4.47;;;23.30;55.40;;;;;;5053389;28;20028;-61
2023/10/11 12:09:37;;;;;;;17.17;4.75;;;23.30;55.40;;;;;;5051646;28;20013;-62
2023/10/11 12:12:07;;;;;;;18.48;3.83;;;23.20;56.90;;;;;;5058146;28;20028;-62
2023/10/11 12:14:37;;;;;;;14.88;4.13;;;23.20;56.70;;;;;;5058022;28;20024;-63
2023/10/11 12:17:10;;;;;;;19.85;4.22;;;23.00;55.60;;;;;;5060669;28;20027;-62
2023/10/11 12:19:42;;;;;;;19.88;4.38;;;23.00;56.80;;;;;;5059527;28;20608;-62
2023/10/11 12:22:13;;;;;;;22.75;4.38;;;23.10;56.50;;;;;;5058922;28;20017;-62
2023/10/11 12:24:44;;;;;;;21.20;4.53;;;23.10;56.20;;;;;;5057162;28;20031;-62
2023/10/11 12:27:11;;;;;;;17.35;4.65;;;23.10;55.90;;;;;;5053758;28;20021;-64
2023/10/11 12:29:39;;;;;;;15.23;4.00;;;23.10;56.60;;;;;;5053218;28;20015;-62
2023/10/11 12:32:07;;;;;;;22.77;4.97;;;23.10;56.60;;;;;;5057613;28;20676;-61
2023/10/11 12:34:33;;;;;;;21.95;4.30;;;23.00;56.30;;;;;;5060634;28;20067;-61
2023/10/11 12:37:02;;;;;;;27.50;4.57;;;23.00;56.60;;;;;;5057057;28;20017;-63
2023/10/11 12:39:33;;;;;;;12.13;4.82;;;22.90;57.50;;;;;;5056887;28;20040;-64
2023/10/11 12:41:59;;;;;;;19.50;4.38;;;22.90;57.20;;;;;;5053507;28;20143;-61
2023/10/11 12:44:29;;;;;;;15.93;4.38;;;22.80;56.60;;;;;;5054177;28;20024;-61
2023/10/11 12:47:00;;;;;;;17.13;4.38;;;22.80;56.60;;;;;;5056868;28;20032;-62
2023/10/11 12:49:27;;;;;;;15.85;4.55;;;22.70;56.50;;;;;;5055470;28;20378;-62
2023/10/11 12:51:54;;;;;;;21.27;4.53;;;22.80;56.70;;;;;;5055202;28;20031;-62
2023/10/11 12:54:22;;;;;;;24.75;4.65;;;22.80;56.60;;;;;;5053456;28;20020;-61
2023/10/11 12:56:50;;;;;;;21.67;5.03;;;22.70;57.00;;;;;;5052989;28;20017;-62
2023/10/11 12:59:19;;;;;;;22.90;5.72;;;22.80;57.40;;;;;;5053370;28;20040;-61
2023/10/11 13:01:55;;;;;;;28.75;6.38;;;22.70;57.80;;;;;;5054115;28;20025;-64
2023/10/11 13:04:30;;;;;;;27.20;6.43;;;22.50;58.30;;;;;;5052732;28;20434;-62
2023/10/11 13:06:59;;;;;;;27.70;6.68;;;22.50;59.40;;;;;;5050476;28;20037;-62
2023/10/11 13:09:27;;;;;;;26.13;8.55;;;22.40;59.90;;;;;;5054689;28;20096;-60
2023/10/11 13:11:57;;;;;;;48.60;10.68;;;22.30;61.30;;;;;;5057877;28;20028;-60
2023/10/11 13:14:24;;;;;;;45.00;11.43;;;22.30;62.00;;;;;;5055326;28;20025;-61
2023/10/11 13:16:54;;;;;;;40.13;10.05;;;22.30;62.60;;;;;;5054511;28;20098;-60
2023/10/11 13:19:22;;;;;;;40.90;10.77;;;22.30;63.50;;;;;;5053223;28;20150;-60
2023/10/11 13:21:50;;;;;;;51.58;12.10;;;22.30;64.30;;;;;;5054637;28;20135;-62
2023/10/11 13:24:22;;;;;;;55.95;12.63;;;22.30;65.00;;;;;;5053171;28;20052;-61
2023/10/11 13:26:57;;;;;;;52.30;12.80;;;22.20;65.30;;;;;;5053274;28;20028;-61
2023/10/11 13:29:25;;;;;;;68.43;15.07;;;22.20;65.60;;;;;;5054193;28;20028;-61
2023/10/11 13:31:53;;;;;;;68.53;16.02;;;22.20;67.70;;;;;;5054149;28;20013;-60
2023/10/11 13:34:29;;;;;;;66.82;16.98;;;22.20;69.30;;;;;;5054324;28;20032;-62
2023/10/11 13:37:00;;;;;;;63.88;16.77;;;22.10;70.60;;;;;;5057401;28;20025;-61
2023/10/11 13:39:39;;;;;;;74.00;16.35;;;22.10;71.80;;;;;;5052140;28;20029;-62
2023/10/11 13:42:09;;;;;;;65.75;17.38;;;22.00;73.40;;;;;;5051495;28;20041;-60
2023/10/11 13:44:39;;;;;;;91.05;18.60;;;22.00;74.00;;;;;;5052150;28;20037;-62
2023/10/11 13:47:05;;;;;;;84.40;23.20;;;22.00;74.70;;;;;;5054330;28;20071;-62